createdAt,value
2022-09-06T00:01:13.121Z,21.25
2022-09-06T00:03:41.992Z,21.23
2022-09-06T00:06:13.579Z,21.23
2022-09-06T00:08:43.701Z,21.20
2022-09-06T00:11:13.929Z,21.19
2022-09-06T00:13:42.451Z,21.18
2022-09-06T00:16:13.737Z,21.17
2022-09-06T00:18:42.868Z,21.16
2022-09-06T00:21:18.711Z,21.17
2022-09-06T00:23:47.344Z,21.14
2022-09-06T00:26:17.455Z,21.11
2022-09-06T00:28:46.140Z,21.10
2022-09-06T00:31:17.222Z,21.08
2022-09-06T00:33:45.707Z,21.06
2022-09-06T00:36:14.628Z,21.03
2022-09-06T00:38:43.833Z,20.99
2022-09-06T00:41:15.033Z,20.95
2022-09-06T00:43:45.285Z,20.90
2022-09-06T00:46:19.019Z,20.83
2022-09-06T00:48:50.347Z,20.78
2022-09-06T00:51:21.920Z,20.73
2022-09-06T00:53:51.364Z,20.70
2022-09-06T00:56:19.787Z,20.69
2022-09-06T00:58:50.810Z,20.65
2022-09-06T01:01:19.298Z,20.63
2022-09-06T01:03:47.769Z,20.59
2022-09-06T01:06:27.097Z,20.48
2022-09-06T01:09:08.005Z,20.42
2022-09-06T01:12:17.916Z,20.36
2022-09-06T01:15:06.035Z,20.35
2022-09-06T01:17:51.182Z,20.35
2022-09-06T01:20:42.849Z,20.30
2022-09-06T01:23:54.038Z,20.32
2022-09-06T01:27:07.580Z,20.35
2022-09-06T01:29:44.592Z,20.29
2022-09-06T01:32:25.008Z,20.25
2022-09-06T01:35:03.803Z,20.39
2022-09-06T01:37:33.011Z,20.56
2022-09-06T01:40:01.699Z,20.72
2022-09-06T01:42:34.162Z,20.91
2022-09-06T01:45:09.639Z,21.12
2022-09-06T01:47:49.935Z,21.27
2022-09-06T01:50:55.489Z,21.39
2022-09-06T01:53:43.144Z,21.46
2022-09-06T01:56:23.420Z,21.49
2022-09-06T01:59:15.101Z,21.48
2022-09-06T02:01:57.694Z,21.47
2022-09-06T02:04:32.963Z,21.46
2022-09-06T02:07:09.027Z,21.43
2022-09-06T02:09:42.037Z,21.42
2022-09-06T02:12:14.244Z,21.39
2022-09-06T02:14:50.816Z,21.36
2022-09-06T02:17:27.021Z,21.33
2022-09-06T02:20:00.615Z,21.33
2022-09-06T02:22:34.227Z,21.34
2022-09-06T02:25:04.340Z,21.34
2022-09-06T02:27:33.645Z,21.33
2022-09-06T02:30:03.013Z,21.32
2022-09-06T02:32:39.006Z,21.30
2022-09-06T02:35:17.627Z,21.31
2022-09-06T02:37:46.539Z,21.29
2022-09-06T02:40:15.162Z,21.26
2022-09-06T02:42:43.568Z,21.24
2022-09-06T02:45:12.365Z,21.20
2022-09-06T02:47:42.112Z,21.20
2022-09-06T02:50:10.925Z,21.20
2022-09-06T02:52:39.541Z,21.19
2022-09-06T02:55:09.229Z,21.18
2022-09-06T02:57:37.615Z,21.11
2022-09-06T03:00:07.660Z,20.92
2022-09-06T03:02:36.137Z,20.66
2022-09-06T03:05:06.680Z,20.45
2022-09-06T03:07:35.091Z,20.28
2022-09-06T03:10:03.553Z,20.04
2022-09-06T03:12:32.167Z,19.81
2022-09-06T03:15:00.640Z,19.54
2022-09-06T03:17:28.987Z,19.33
2022-09-06T03:19:58.056Z,19.19
2022-09-06T03:22:27.969Z,19.09
2022-09-06T03:24:56.571Z,19.02
2022-09-06T03:27:25.044Z,18.92
2022-09-06T03:29:53.696Z,18.84
2022-09-06T03:32:22.028Z,18.82
2022-09-06T03:34:50.638Z,18.86
2022-09-06T03:37:19.699Z,18.86
2022-09-06T03:39:49.441Z,18.88
2022-09-06T03:42:18.119Z,18.91
2022-09-06T03:44:46.486Z,18.93
2022-09-06T03:47:18.854Z,18.92
2022-09-06T03:49:48.380Z,18.92
2022-09-06T03:52:17.176Z,18.91
2022-09-06T03:54:45.839Z,18.90
2022-09-06T03:57:15.614Z,18.90
2022-09-06T03:59:44.006Z,18.91
2022-09-06T04:02:12.729Z,18.94
2022-09-06T04:04:41.426Z,18.95
2022-09-06T04:07:09.780Z,18.97
2022-09-06T04:09:38.196Z,18.97
2022-09-06T04:12:06.891Z,18.96
2022-09-06T04:14:36.591Z,18.92
2022-09-06T04:17:05.234Z,18.90
2022-09-06T04:19:34.324Z,18.88
2022-09-06T04:22:02.884Z,18.87
2022-09-06T04:24:31.488Z,18.83
2022-09-06T04:27:00.688Z,18.79
2022-09-06T04:29:29.003Z,18.73
2022-09-06T04:31:58.772Z,18.65
2022-09-06T04:34:27.129Z,18.59
2022-09-06T04:36:55.472Z,18.53
2022-09-06T04:39:23.865Z,18.47
2022-09-06T04:41:52.259Z,18.41
2022-09-06T04:44:20.695Z,18.37
2022-09-06T04:46:49.340Z,18.32
2022-09-06T04:49:19.092Z,18.29
2022-09-06T04:51:47.683Z,18.25
2022-09-06T04:54:16.013Z,18.23
2022-09-06T04:56:44.616Z,18.21
2022-09-06T04:59:12.931Z,18.20
2022-09-06T05:01:41.266Z,18.21
2022-09-06T05:04:10.146Z,18.21
2022-09-06T05:06:41.292Z,18.19
2022-09-06T05:09:09.899Z,18.17
2022-09-06T05:11:38.552Z,18.15
2022-09-06T05:14:06.950Z,18.12
2022-09-06T05:16:35.347Z,18.13
2022-09-06T05:19:03.876Z,18.14
2022-09-06T05:21:32.191Z,18.15
2022-09-06T05:24:01.936Z,18.17
2022-09-06T05:26:30.300Z,18.20
2022-09-06T05:28:58.726Z,18.27
2022-09-06T05:31:29.642Z,18.33
2022-09-06T05:33:59.269Z,18.38
2022-09-06T05:36:28.883Z,18.44
2022-09-06T05:38:58.777Z,18.50
2022-09-06T05:41:28.968Z,18.56
2022-09-06T05:43:57.362Z,18.62
2022-09-06T05:46:26.594Z,18.68
2022-09-06T05:48:56.089Z,18.76
2022-09-06T05:51:24.455Z,18.80
2022-09-06T05:53:53.060Z,18.85
2022-09-06T05:56:22.321Z,18.90
2022-09-06T05:58:52.036Z,18.96
2022-09-06T06:01:22.424Z,19.02
2022-09-06T06:03:55.340Z,19.06
2022-09-06T06:06:25.044Z,19.13
2022-09-06T06:08:53.527Z,19.20
2022-09-06T06:11:22.398Z,19.26
2022-09-06T06:13:52.274Z,19.33
2022-09-06T06:16:23.994Z,19.37
2022-09-06T06:18:53.027Z,19.42
2022-09-06T06:21:23.622Z,19.48
2022-09-06T06:23:54.851Z,19.56
2022-09-06T06:26:23.924Z,19.60
2022-09-06T06:28:54.349Z,19.67
2022-09-06T06:31:23.843Z,19.72
2022-09-06T06:33:52.996Z,19.74
2022-09-06T06:36:24.336Z,19.79
2022-09-06T06:38:55.486Z,19.84
2022-09-06T06:41:26.636Z,19.91
2022-09-06T06:43:58.412Z,20.02
2022-09-06T06:46:29.395Z,20.20
2022-09-06T06:48:58.384Z,20.45
2022-09-06T06:51:29.332Z,20.87
2022-09-06T06:53:58.164Z,21.39
2022-09-06T06:56:29.141Z,21.80
2022-09-06T06:59:01.650Z,22.15
2022-09-06T07:01:32.012Z,22.43
2022-09-06T07:04:01.008Z,22.68
2022-09-06T07:09:19.988Z,22.89
2022-09-06T07:11:49.644Z,22.93
2022-09-06T07:14:20.038Z,22.98
2022-09-06T07:16:49.363Z,22.92
2022-09-06T07:22:07.647Z,22.80
2022-09-06T07:24:39.349Z,22.88
2022-09-06T07:29:57.540Z,23.00
2022-09-06T07:32:25.993Z,22.95
2022-09-06T07:34:54.640Z,22.87
2022-09-06T07:37:22.960Z,22.82
2022-09-06T07:39:51.618Z,22.88
2022-09-06T07:42:20.298Z,23.20
2022-09-06T07:44:48.746Z,23.50
2022-09-06T07:53:15.229Z,24.77
2022-09-06T07:55:44.314Z,24.73
2022-09-06T07:58:12.698Z,24.62
2022-09-06T08:00:41.956Z,24.87
2022-09-06T08:03:11.736Z,25.14
2022-09-06T08:11:17.848Z,24.87
2022-09-06T08:13:49.453Z,24.84
2022-09-06T08:16:17.998Z,24.95
2022-09-06T08:18:52.868Z,25.55
2022-09-06T08:21:23.562Z,26.23
2022-09-06T08:23:54.458Z,26.84
2022-09-06T08:26:24.673Z,27.11
2022-09-06T08:28:56.169Z,27.23
2022-09-06T08:31:24.943Z,27.48
2022-09-06T08:33:55.548Z,27.66
2022-09-06T08:36:27.141Z,27.90
2022-09-06T08:38:55.790Z,28.26
2022-09-06T08:41:28.840Z,28.65
2022-09-06T08:46:57.216Z,29.33
2022-09-06T08:49:30.740Z,29.54
2022-09-06T08:52:45.287Z,29.67
2022-09-06T08:55:31.461Z,29.71
2022-09-06T08:58:22.065Z,29.82
2022-09-06T09:00:58.393Z,30.08
2022-09-06T09:03:33.405Z,30.37
2022-09-06T09:06:05.456Z,30.38
2022-09-06T09:08:43.026Z,30.58
2022-09-06T09:11:18.307Z,30.87
2022-09-06T09:13:56.104Z,31.20
2022-09-06T09:16:25.118Z,31.50
2022-09-06T09:18:56.798Z,31.80
2022-09-06T09:21:30.789Z,32.12
2022-09-06T09:24:03.972Z,32.38
2022-09-06T09:26:41.645Z,32.35
2022-09-06T09:29:12.873Z,32.20
2022-09-06T09:31:43.914Z,32.28
2022-09-06T09:34:15.493Z,32.24
2022-09-06T09:39:39.706Z,32.63
2022-09-06T09:42:10.023Z,33.01
2022-09-06T09:44:44.241Z,33.35
2022-09-06T09:47:28.376Z,33.32
2022-09-06T09:49:56.809Z,33.32
2022-09-06T09:52:29.392Z,33.35
2022-09-06T09:55:01.708Z,33.31
2022-09-06T09:57:33.225Z,33.23
2022-09-06T10:00:02.320Z,33.37
2022-09-06T10:02:35.701Z,33.53
2022-09-06T10:05:09.304Z,33.70
2022-09-06T10:07:45.832Z,33.77
2022-09-06T10:10:17.503Z,33.80
2022-09-06T10:12:45.793Z,33.86
2022-09-06T10:15:35.036Z,33.90
2022-09-06T10:18:03.696Z,34.11
2022-09-06T10:20:45.085Z,34.30
2022-09-06T10:26:20.070Z,34.57
2022-09-06T10:28:48.631Z,34.75
2022-09-06T10:31:54.345Z,34.83
2022-09-06T10:34:58.133Z,34.63
2022-09-06T10:37:57.154Z,34.81
2022-09-06T10:40:34.835Z,34.88
2022-09-06T10:43:08.884Z,34.85
2022-09-06T10:45:47.776Z,34.71
2022-09-06T10:48:25.039Z,34.72
2022-09-06T10:50:57.129Z,34.71
2022-09-06T10:53:44.585Z,34.57
2022-09-06T10:56:21.813Z,34.65
2022-09-06T11:02:02.257Z,35.26
2022-09-06T11:07:31.741Z,35.32
2022-09-06T11:10:07.801Z,35.11
2022-09-06T11:12:45.001Z,35.19
2022-09-06T11:15:16.405Z,35.47
2022-09-06T11:17:52.272Z,35.55
2022-09-06T11:20:32.125Z,35.77
2022-09-06T11:23:34.402Z,35.95
2022-09-06T11:26:31.900Z,36.23
2022-09-06T11:29:07.219Z,36.17
2022-09-06T11:34:41.169Z,36.34
2022-09-06T11:37:24.679Z,36.61
2022-09-06T11:40:29.481Z,36.78
2022-09-06T11:43:18.836Z,36.91
2022-09-06T11:45:51.559Z,36.82
2022-09-06T11:49:02.529Z,36.67
2022-09-06T11:51:38.243Z,36.71
2022-09-06T11:54:43.909Z,36.79
2022-09-06T11:57:17.846Z,36.74
2022-09-06T12:00:00.437Z,36.68
2022-09-06T12:02:38.760Z,36.94
2022-09-06T12:05:27.820Z,37.37
2022-09-06T12:08:42.526Z,37.77
2022-09-06T12:11:35.225Z,37.80
2022-09-06T12:14:06.562Z,37.87
2022-09-06T12:17:25.798Z,37.71
2022-09-06T12:20:04.195Z,37.78
2022-09-06T12:23:03.276Z,37.82
2022-09-06T12:25:57.527Z,37.52
2022-09-06T12:28:42.419Z,37.18
2022-09-06T12:31:41.345Z,36.97
2022-09-06T12:34:20.407Z,36.84
2022-09-06T12:36:56.308Z,36.79
2022-09-06T12:39:25.591Z,36.83
2022-09-06T12:41:58.087Z,36.92
2022-09-06T12:44:34.588Z,37.09
2022-09-06T12:47:18.648Z,37.31
2022-09-06T12:49:47.034Z,37.60
2022-09-06T12:52:20.743Z,37.94
2022-09-06T12:54:51.343Z,38.28
2022-09-06T12:57:23.024Z,38.43
2022-09-06T12:59:54.770Z,38.52
2022-09-06T13:02:32.741Z,38.70
2022-09-06T13:05:06.461Z,38.96
2022-09-06T13:07:40.645Z,39.09
2022-09-06T13:10:09.439Z,39.23
2022-09-06T13:12:41.492Z,39.39
2022-09-06T13:15:15.731Z,39.74
2022-09-06T13:17:43.847Z,40.14
2022-09-06T13:20:16.077Z,40.41
2022-09-06T13:22:49.239Z,40.35
2022-09-06T13:25:26.081Z,40.03
2022-09-06T13:27:57.968Z,39.58
2022-09-06T13:30:37.245Z,39.15
2022-09-06T13:33:08.308Z,38.94
2022-09-06T13:35:39.429Z,38.91
2022-09-06T13:38:34.546Z,39.05
2022-09-06T13:41:14.653Z,39.15
2022-09-06T13:43:47.977Z,39.22
2022-09-06T13:46:16.298Z,39.41
2022-09-06T13:48:45.185Z,39.61
2022-09-06T13:51:13.915Z,39.43
2022-09-06T13:53:43.682Z,39.17
2022-09-06T13:56:12.223Z,38.92
2022-09-06T13:58:40.444Z,38.78
2022-09-06T14:01:10.702Z,38.57
2022-09-06T14:03:42.102Z,38.45
2022-09-06T14:06:11.362Z,38.66
2022-09-06T14:09:05.365Z,38.91
2022-09-06T14:11:30.101Z,38.18
2022-09-06T14:13:58.971Z,37.06
2022-09-06T14:16:27.828Z,36.24
2022-09-06T14:18:56.323Z,36.34
2022-09-06T14:21:25.275Z,36.76
2022-09-06T14:23:54.211Z,37.04
2022-09-06T14:26:24.049Z,37.06
2022-09-06T14:28:53.675Z,37.03
2022-09-06T14:31:26.112Z,36.88
2022-09-06T14:33:55.640Z,36.85
2022-09-06T14:36:27.237Z,36.90
2022-09-06T14:38:57.205Z,37.04
2022-09-06T14:41:26.106Z,37.13
2022-09-06T14:43:58.690Z,37.14
2022-09-06T14:46:29.073Z,36.95
2022-09-06T14:48:59.871Z,36.85
2022-09-06T14:51:28.788Z,36.70
2022-09-06T14:54:00.037Z,36.64
2022-09-06T14:56:28.663Z,36.46
2022-09-06T14:58:59.938Z,36.30
2022-09-06T15:01:37.088Z,36.25
2022-09-06T15:04:09.708Z,36.24
2022-09-06T15:06:41.090Z,36.10
2022-09-06T15:09:11.404Z,36.06
2022-09-06T15:11:43.713Z,35.97
2022-09-06T15:14:20.857Z,35.78
2022-09-06T15:16:55.999Z,35.61
2022-09-06T15:19:26.571Z,35.55
2022-09-06T15:21:55.386Z,35.47
2022-09-06T15:24:23.980Z,35.44
2022-09-06T15:26:52.602Z,35.35
2022-09-06T15:29:22.593Z,35.23
2022-09-06T15:31:51.806Z,35.07
2022-09-06T15:34:21.733Z,34.78
2022-09-06T15:36:52.808Z,34.39
2022-09-06T15:39:21.369Z,34.07
2022-09-06T15:41:51.793Z,33.64
2022-09-06T15:44:22.315Z,33.31
2022-09-06T15:46:53.914Z,32.93
2022-09-06T15:49:28.058Z,32.57
2022-09-06T15:51:57.328Z,32.14
2022-09-06T15:54:46.185Z,31.75
2022-09-06T15:57:16.297Z,31.51
2022-09-06T15:59:46.518Z,31.37
2022-09-06T16:02:15.686Z,31.17
2022-09-06T16:04:44.101Z,31.32
2022-09-06T16:07:12.681Z,31.58
2022-09-06T16:09:41.355Z,31.88
2022-09-06T16:12:10.816Z,31.98
2022-09-06T16:14:39.295Z,31.81
2022-09-06T16:17:09.150Z,31.49
2022-09-06T16:19:37.590Z,31.13
2022-09-06T16:22:06.037Z,30.80
2022-09-06T16:24:34.770Z,30.52
2022-09-06T16:27:03.311Z,30.31
2022-09-06T16:29:31.847Z,30.14
2022-09-06T16:32:00.592Z,30.01
2022-09-06T16:34:30.429Z,29.99
2022-09-06T16:37:00.285Z,29.96
2022-09-06T16:39:28.722Z,29.85
2022-09-06T16:41:57.119Z,29.73
2022-09-06T16:44:26.111Z,29.65
2022-09-06T16:46:56.015Z,29.53
2022-09-06T16:49:24.947Z,29.42
2022-09-06T16:51:54.756Z,29.34
2022-09-06T16:54:23.263Z,29.27
2022-09-06T16:56:51.923Z,29.18
2022-09-06T16:59:21.678Z,29.11
2022-09-06T17:01:51.412Z,29.01
2022-09-06T17:04:20.357Z,28.90
2022-09-06T17:06:48.955Z,28.82
2022-09-06T17:09:20.479Z,28.80
2022-09-06T17:11:49.967Z,28.78
2022-09-06T17:14:19.127Z,28.77
2022-09-06T17:17:06.841Z,28.78
2022-09-06T17:19:41.189Z,28.77
2022-09-06T17:22:11.108Z,28.75
2022-09-06T17:24:41.774Z,28.70
2022-09-06T17:27:10.840Z,28.65
2022-09-06T17:29:40.059Z,28.58
2022-09-06T17:32:10.156Z,28.48
2022-09-06T17:34:39.432Z,28.37
2022-09-06T17:37:08.193Z,28.27
2022-09-06T17:39:36.887Z,28.17
2022-09-06T17:42:07.597Z,28.07
2022-09-06T17:44:36.244Z,27.87
2022-09-06T17:47:13.775Z,27.62
2022-09-06T17:49:43.239Z,27.39
2022-09-06T17:52:12.528Z,27.20
2022-09-06T17:54:40.998Z,27.03
2022-09-06T17:57:10.828Z,26.90
2022-09-06T17:59:39.472Z,26.73
2022-09-06T18:02:08.384Z,26.54
2022-09-06T18:04:37.020Z,26.34
2022-09-06T18:07:05.524Z,26.18
2022-09-06T18:09:34.214Z,26.00
2022-09-06T18:12:02.759Z,25.84
2022-09-06T18:14:32.596Z,25.69
2022-09-06T18:17:01.127Z,25.56
2022-09-06T18:19:29.981Z,25.42
2022-09-06T18:21:58.380Z,25.29
2022-09-06T18:24:27.101Z,25.16
2022-09-06T18:26:55.629Z,25.04
2022-09-06T18:29:24.314Z,24.93
2022-09-06T18:31:54.515Z,24.83
2022-09-06T18:34:23.099Z,24.74
2022-09-06T18:36:51.540Z,24.69
2022-09-06T18:39:20.373Z,24.63
2022-09-06T18:42:01.373Z,24.57
2022-09-06T18:44:32.358Z,24.53
2022-09-06T18:47:05.740Z,24.49
2022-09-06T18:49:35.337Z,24.45
2022-09-06T18:52:06.001Z,24.39
2022-09-06T18:54:35.818Z,24.34
2022-09-06T18:57:04.427Z,24.28
2022-09-06T18:59:32.959Z,24.23
2022-09-06T19:02:02.830Z,24.18
2022-09-06T19:04:31.526Z,24.13
2022-09-06T19:07:03.845Z,24.09
2022-09-06T19:09:32.576Z,24.05
2022-09-06T19:12:00.960Z,23.99
2022-09-06T19:14:29.507Z,23.96
2022-09-06T19:16:58.503Z,23.89
2022-09-06T19:19:28.582Z,23.85
2022-09-06T19:21:57.250Z,23.81
2022-09-06T19:24:26.000Z,23.77
2022-09-06T19:26:55.192Z,23.74
2022-09-06T19:29:23.805Z,23.68
2022-09-06T19:31:53.011Z,23.64
2022-09-06T19:34:21.980Z,23.60
2022-09-06T19:36:55.118Z,23.57
2022-09-06T19:39:31.119Z,23.54
2022-09-06T19:42:02.392Z,23.50
2022-09-06T19:44:30.799Z,23.47
2022-09-06T19:46:59.930Z,23.44
2022-09-06T19:49:30.698Z,23.41
2022-09-06T19:52:00.468Z,23.37
2022-09-06T19:54:28.932Z,23.36
2022-09-06T19:56:57.751Z,23.30
2022-09-06T19:59:26.481Z,23.26
2022-09-06T20:01:54.939Z,23.19
2022-09-06T20:04:23.676Z,23.14
2022-09-06T20:06:52.047Z,23.07
2022-09-06T20:09:22.036Z,23.06
2022-09-06T20:11:50.609Z,23.04
2022-09-06T20:14:19.018Z,23.01
2022-09-06T20:16:47.449Z,22.98
2022-09-06T20:19:16.388Z,22.93
2022-09-06T20:21:45.276Z,22.89
2022-09-06T20:24:13.714Z,22.86
2022-09-06T20:26:43.705Z,22.85
2022-09-06T20:29:12.143Z,22.87
2022-09-06T20:31:40.922Z,22.87
2022-09-06T20:34:09.396Z,22.87
2022-09-06T20:36:37.835Z,22.86
2022-09-06T20:39:06.841Z,22.85
2022-09-06T20:41:35.563Z,22.84
2022-09-06T20:44:05.529Z,22.82
2022-09-06T20:46:36.003Z,22.82
2022-09-06T20:49:06.602Z,22.79
2022-09-06T20:51:38.660Z,22.77
2022-09-06T20:54:07.667Z,22.76
2022-09-06T20:56:39.376Z,22.73
2022-09-06T20:59:11.016Z,22.63
2022-09-06T21:01:44.186Z,22.56
2022-09-06T21:04:15.213Z,22.53
2022-09-06T21:06:45.811Z,22.49
2022-09-06T21:09:15.678Z,22.45
2022-09-06T21:11:45.185Z,22.40
2022-09-06T21:14:15.084Z,22.32
2022-09-06T21:16:43.574Z,22.25
2022-09-06T21:19:13.488Z,22.17
2022-09-06T21:21:42.274Z,22.11
2022-09-06T21:24:11.842Z,22.03
2022-09-06T21:26:40.901Z,21.97
2022-09-06T21:29:09.482Z,21.88
2022-09-06T21:31:39.375Z,21.84
2022-09-06T21:34:15.625Z,21.77
2022-09-06T21:36:45.390Z,21.73
2022-09-06T21:39:14.254Z,21.67
2022-09-06T21:41:44.716Z,21.59
2022-09-06T21:44:13.321Z,21.52
2022-09-06T21:46:43.800Z,21.41
2022-09-06T21:49:14.691Z,21.30
2022-09-06T21:51:43.934Z,21.20
2022-09-06T21:54:12.616Z,21.11
2022-09-06T21:56:41.846Z,21.05
2022-09-06T21:59:11.054Z,20.98
2022-09-06T22:01:45.082Z,20.94
2022-09-06T22:04:14.761Z,20.89
2022-09-06T22:06:43.260Z,20.86
2022-09-06T22:09:13.228Z,20.81
2022-09-06T22:11:43.751Z,20.78
2022-09-06T22:14:14.599Z,20.73
2022-09-06T22:16:44.836Z,20.69
2022-09-06T22:19:13.635Z,20.62
2022-09-06T22:21:42.065Z,20.59
2022-09-06T22:24:14.203Z,20.55
2022-09-06T22:26:43.036Z,20.55
2022-09-06T22:29:15.025Z,20.55
2022-09-06T22:31:46.077Z,20.55
2022-09-06T22:34:14.620Z,20.56
2022-09-06T22:36:43.315Z,20.58
2022-09-06T22:39:11.780Z,20.60
2022-09-06T22:41:40.604Z,20.62
2022-09-06T22:44:09.158Z,20.65
2022-09-06T22:46:38.270Z,20.67
2022-09-06T22:49:08.385Z,20.72
2022-09-06T22:51:37.050Z,20.73
2022-09-06T22:54:06.283Z,20.72
2022-09-06T22:56:35.891Z,20.69
2022-09-06T22:59:04.897Z,20.70
2022-09-06T23:01:38.913Z,20.72
2022-09-06T23:04:10.037Z,20.75
2022-09-06T23:06:38.769Z,20.79
2022-09-06T23:09:07.492Z,20.81
2022-09-06T23:11:36.245Z,20.84
2022-09-06T23:14:05.030Z,20.87
2022-09-06T23:16:33.751Z,20.89
2022-09-06T23:19:02.474Z,20.91
2022-09-06T23:21:32.409Z,20.92
2022-09-06T23:24:00.816Z,20.94
2022-09-06T23:26:31.992Z,20.94
2022-09-06T23:29:00.716Z,20.94
2022-09-06T23:31:32.642Z,20.93
2022-09-06T23:34:02.717Z,20.91
2022-09-06T23:36:33.210Z,20.89
2022-09-06T23:39:02.535Z,20.87
2022-09-06T23:41:31.365Z,20.87
2022-09-06T23:44:00.445Z,20.85
2022-09-06T23:46:29.085Z,20.85
2022-09-06T23:48:57.701Z,20.86
2022-09-06T23:51:26.447Z,20.86
2022-09-06T23:53:56.343Z,20.87
2022-09-06T23:56:24.747Z,20.88
2022-09-06T23:58:53.198Z,20.91
